Terminal Aerodrome Forecast
Issued by NWS Cleveland, OH

Home | Current Version | Previous Version | Graphics & Text | Print | Product List | Glossary Off
Versions: 1 2 3 4 5 6 7 8 9 10 11 12 13 14 15

000
FTUS41 KCLE 241735
TAFCAK
TAF
KCAK 241735Z 2418/2518 22018G28KT P6SM SCT060 BKN140
     FM250000 23012G20KT P6SM SCT060
     FM250900 22007KT P6SM BKN050=

USA.gov is the U.S. government's official web portal to all federal, state and local government web resources and services.